createdAt,value
2019-05-17T00:02:00.356Z,83.29
2019-05-17T00:04:27.022Z,83.44
2019-05-17T00:06:53.330Z,83.49
2019-05-17T00:09:20.812Z,83.48
2019-05-17T00:11:47.430Z,83.49
2019-05-17T00:14:13.764Z,83.54
2019-05-17T00:16:39.908Z,83.55
2019-05-17T00:19:07.509Z,83.52
2019-05-17T00:21:33.940Z,83.48
2019-05-17T00:24:00.080Z,83.41
2019-05-17T00:26:26.951Z,83.38
2019-05-17T00:32:29.280Z,83.22
2019-05-17T00:34:56.364Z,83.26
2019-05-17T00:37:22.675Z,83.28
2019-05-17T00:39:48.810Z,83.28
2019-05-17T00:42:17.035Z,83.21
2019-05-17T00:44:43.041Z,83.15
2019-05-17T00:47:09.201Z,82.97
2019-05-17T00:49:37.231Z,82.93
2019-05-17T00:52:03.529Z,82.72
2019-05-17T00:54:29.691Z,82.71
2019-05-17T00:56:56.654Z,82.81
2019-05-17T00:59:23.030Z,82.91
2019-05-17T01:01:49.230Z,82.96
2019-05-17T01:04:17.285Z,82.98
2019-05-17T01:06:43.552Z,82.96
2019-05-17T01:09:09.659Z,82.98
2019-05-17T01:11:36.582Z,82.94
2019-05-17T01:14:06.667Z,82.91
2019-05-17T01:16:32.113Z,82.89
2019-05-17T01:18:58.546Z,82.83
2019-05-17T01:21:26.286Z,82.69
2019-05-17T01:23:52.496Z,82.58
2019-05-17T01:26:18.770Z,82.65
2019-05-17T01:28:46.745Z,82.51
2019-05-17T01:31:12.996Z,82.57
2019-05-17T01:33:39.251Z,82.52
2019-05-17T01:36:06.836Z,82.61
2019-05-17T01:38:33.374Z,82.62
2019-05-17T01:40:59.539Z,82.58
2019-05-17T01:43:27.342Z,82.72
2019-05-17T01:45:53.897Z,82.92
2019-05-17T01:48:20.120Z,83.06
2019-05-17T01:50:46.533Z,83.20
2019-05-17T01:53:12.777Z,83.30
2019-05-17T01:55:38.870Z,83.21
2019-05-17T01:58:07.371Z,83.28
2019-05-17T02:00:33.423Z,83.35
2019-05-17T02:02:59.760Z,83.30
2019-05-17T02:05:27.479Z,83.27
2019-05-17T02:07:53.751Z,83.29
2019-05-17T02:10:20.404Z,83.50
2019-05-17T02:12:49.113Z,83.70
2019-05-17T02:15:16.501Z,83.74
2019-05-17T02:17:43.019Z,83.83
2019-05-17T02:20:10.215Z,83.83
2019-05-17T02:22:36.890Z,83.85
2019-05-17T02:25:07.950Z,83.85
2019-05-17T02:27:40.717Z,83.76
2019-05-17T02:30:04.829Z,83.69
2019-05-17T02:32:33.712Z,83.63
2019-05-17T02:35:03.011Z,83.58
2019-05-17T02:37:27.425Z,83.46
2019-05-17T02:40:02.461Z,83.44
2019-05-17T02:42:22.410Z,83.34
2019-05-17T02:44:48.876Z,83.30
2019-05-17T02:47:15.031Z,83.25
2019-05-17T02:49:42.463Z,83.23
2019-05-17T02:52:12.171Z,83.20
2019-05-17T02:54:37.043Z,83.18
2019-05-17T02:57:03.488Z,83.08
2019-05-17T02:59:32.787Z,83.00
2019-05-17T03:01:58.072Z,82.96
2019-05-17T03:04:24.179Z,82.84
2019-05-17T03:06:53.247Z,82.72
2019-05-17T03:09:18.910Z,82.74
2019-05-17T03:11:45.218Z,82.65
2019-05-17T03:14:12.846Z,82.75
2019-05-17T03:16:42.742Z,82.91
2019-05-17T03:19:07.613Z,83.07
2019-05-17T03:21:34.136Z,83.05
2019-05-17T03:24:03.241Z,83.15
2019-05-17T03:26:28.724Z,83.21
2019-05-17T03:28:54.938Z,83.12
2019-05-17T03:31:26.222Z,83.10
2019-05-17T03:33:55.045Z,83.02
2019-05-17T03:36:18.749Z,83.07
2019-05-17T03:38:46.164Z,83.04
2019-05-17T03:41:22.173Z,82.87
2019-05-17T03:43:44.129Z,82.92
2019-05-17T03:46:08.798Z,82.91
2019-05-17T03:48:35.339Z,82.88
2019-05-17T03:51:02.574Z,82.74
2019-05-17T03:53:29.059Z,82.84
2019-05-17T03:55:55.396Z,82.82
2019-05-17T03:58:23.481Z,82.57
2019-05-17T04:00:53.103Z,82.58
2019-05-17T04:03:17.988Z,82.65
2019-05-17T04:05:44.202Z,82.45
2019-05-17T04:08:13.643Z,82.56
2019-05-17T04:10:38.568Z,82.48
2019-05-17T04:13:04.840Z,82.42
2019-05-17T04:15:32.843Z,82.42
2019-05-17T04:17:59.210Z,82.22
2019-05-17T04:20:25.455Z,82.23
2019-05-17T04:22:55.504Z,82.17
2019-05-17T04:25:23.468Z,82.09
2019-05-17T04:27:49.724Z,82.09
2019-05-17T04:30:17.339Z,81.95
2019-05-17T04:32:44.628Z,82.03
2019-05-17T04:35:13.160Z,82.00
2019-05-17T04:37:39.879Z,81.93
2019-05-17T04:43:13.622Z,81.94
2019-05-17T04:45:42.550Z,81.95
2019-05-17T04:48:08.144Z,81.85
2019-05-17T04:50:34.410Z,81.99
2019-05-17T04:53:02.581Z,81.88
2019-05-17T04:55:28.830Z,81.53
2019-05-17T04:57:55.102Z,81.55
2019-05-17T05:00:21.957Z,81.57
2019-05-17T05:02:48.187Z,81.51
2019-05-17T05:05:15.300Z,81.39
2019-05-17T05:07:44.153Z,80.82
2019-05-17T05:10:13.435Z,80.76
2019-05-17T05:12:39.225Z,80.59
2019-05-17T05:15:05.724Z,80.40
2019-05-17T05:17:32.909Z,80.13
2019-05-17T05:20:02.522Z,80.20
2019-05-17T05:22:27.477Z,80.46
2019-05-17T05:24:53.718Z,80.59
2019-05-17T05:27:22.161Z,80.40
2019-05-17T05:29:48.133Z,80.31
2019-05-17T05:32:14.323Z,80.06
2019-05-17T05:34:42.730Z,80.18
2019-05-17T05:37:08.633Z,79.89
2019-05-17T05:39:34.729Z,79.45
2019-05-17T05:42:07.935Z,79.66
2019-05-17T05:44:28.987Z,79.60
2019-05-17T05:46:55.253Z,79.79
2019-05-17T05:49:21.810Z,79.80
2019-05-17T05:51:48.080Z,79.62
2019-05-17T05:54:14.183Z,79.67
2019-05-17T05:56:42.196Z,79.63
2019-05-17T05:59:08.502Z,79.20
2019-05-17T06:01:34.824Z,79.21
2019-05-17T06:04:02.759Z,78.86
2019-05-17T06:06:29.050Z,78.82
2019-05-17T06:08:55.238Z,78.86
2019-05-17T06:11:21.702Z,78.90
2019-05-17T06:13:47.963Z,78.12
2019-05-17T06:16:14.192Z,78.21
2019-05-17T06:18:42.413Z,77.93
2019-05-17T06:21:08.533Z,77.75
2019-05-17T06:23:34.672Z,77.36
2019-05-17T06:26:04.126Z,77.05
2019-05-17T06:28:28.939Z,75.70
2019-05-17T06:30:55.188Z,75.63
2019-05-17T06:33:30.450Z,75.79
2019-05-17T06:35:49.628Z,76.13
2019-05-17T06:38:15.723Z,75.71
2019-05-17T06:40:42.320Z,75.48
2019-05-17T06:43:08.452Z,74.58
2019-05-17T06:45:34.663Z,75.09
2019-05-17T06:48:02.517Z,75.24
2019-05-17T06:50:28.853Z,75.51
2019-05-17T06:52:55.017Z,74.07
2019-05-17T06:55:21.170Z,74.81
2019-05-17T06:57:47.307Z,74.63
2019-05-17T07:00:19.831Z,73.39
2019-05-17T07:02:42.154Z,74.04
2019-05-17T07:05:10.451Z,73.23
2019-05-17T07:07:36.761Z,73.93
2019-05-17T07:10:04.037Z,73.23
2019-05-17T07:12:30.805Z,73.45
2019-05-17T07:14:58.444Z,72.87
2019-05-17T07:17:25.319Z,72.12
2019-05-17T07:19:51.409Z,71.68
2019-05-17T07:22:17.750Z,72.17
2019-05-17T07:24:43.825Z,72.85
2019-05-17T07:27:10.109Z,72.23
2019-05-17T07:29:36.304Z,71.98
2019-05-17T07:32:02.863Z,72.31
2019-05-17T07:34:30.891Z,71.37
2019-05-17T07:36:57.092Z,71.64
2019-05-17T07:39:23.334Z,70.89
2019-05-17T07:41:49.484Z,70.66
2019-05-17T07:44:15.766Z,69.67
2019-05-17T07:46:42.088Z,69.24
2019-05-17T07:49:10.605Z,69.71
2019-05-17T07:51:36.392Z,69.90
2019-05-17T07:54:03.754Z,69.69
2019-05-17T07:56:30.554Z,69.96
2019-05-17T07:58:56.943Z,69.97
2019-05-17T08:01:23.218Z,68.13
2019-05-17T08:03:50.116Z,67.73
2019-05-17T08:06:16.705Z,67.34
2019-05-17T08:08:42.935Z,65.96
2019-05-17T08:11:10.604Z,66.91
2019-05-17T08:13:39.701Z,67.20
2019-05-17T08:16:05.273Z,65.62
2019-05-17T08:18:31.526Z,65.63
2019-05-17T08:20:59.646Z,65.74
2019-05-17T08:23:25.762Z,64.57
2019-05-17T08:25:56.117Z,64.28
2019-05-17T08:28:21.587Z,65.07
2019-05-17T08:30:50.186Z,65.15
2019-05-17T08:33:16.281Z,63.63
2019-05-17T08:35:42.432Z,63.77
2019-05-17T08:38:10.280Z,62.79
2019-05-17T08:40:36.744Z,62.60
2019-05-17T08:43:02.975Z,63.03
2019-05-17T08:45:29.635Z,62.08
2019-05-17T08:47:55.793Z,62.21
2019-05-17T08:50:22.329Z,61.91
2019-05-17T08:52:49.540Z,62.70
2019-05-17T08:55:16.021Z,62.00
2019-05-17T08:57:42.222Z,59.91
2019-05-17T09:00:10.755Z,58.89
2019-05-17T09:02:37.259Z,57.29
2019-05-17T09:05:04.626Z,58.83
2019-05-17T09:07:31.775Z,57.96
2019-05-17T09:09:57.931Z,60.13
2019-05-17T09:12:24.086Z,57.50
2019-05-17T09:14:50.297Z,57.85
2019-05-17T09:17:16.475Z,58.22
2019-05-17T09:19:42.820Z,55.33
2019-05-17T09:22:10.497Z,53.69
2019-05-17T09:24:36.899Z,54.88
2019-05-17T09:27:03.383Z,55.42
2019-05-17T09:29:29.761Z,54.63
2019-05-17T09:31:56.398Z,56.28
2019-05-17T09:34:22.821Z,54.22
2019-05-17T09:36:49.752Z,54.70
2019-05-17T09:39:15.975Z,55.11
2019-05-17T09:41:42.115Z,54.43
2019-05-17T09:44:15.167Z,54.27
2019-05-17T09:46:36.487Z,50.42
2019-05-17T09:49:03.927Z,53.05
2019-05-17T09:51:30.409Z,53.05
2019-05-17T09:53:56.658Z,54.18
2019-05-17T09:56:22.811Z,54.00
2019-05-17T09:58:49.551Z,53.30
2019-05-17T10:01:16.028Z,52.89
2019-05-17T10:03:42.247Z,54.12
2019-05-17T10:06:09.638Z,54.26
2019-05-17T10:08:36.289Z,52.45
2019-05-17T10:11:08.327Z,53.67
2019-05-17T10:13:30.993Z,54.41
2019-05-17T10:15:57.410Z,53.59
2019-05-17T10:18:23.641Z,53.40
2019-05-17T10:20:50.632Z,54.42
2019-05-17T10:23:19.521Z,53.63
2019-05-17T10:25:45.108Z,53.22
2019-05-17T10:28:11.339Z,52.20
2019-05-17T10:30:39.910Z,51.79
2019-05-17T10:33:06.177Z,52.27
2019-05-17T10:35:32.366Z,53.45
2019-05-17T10:37:59.783Z,52.26
2019-05-17T10:40:26.733Z,53.04
2019-05-17T10:42:53.067Z,52.07
2019-05-17T10:45:20.853Z,53.29
2019-05-17T10:48:11.045Z,52.58
2019-05-17T10:50:37.408Z,50.69
2019-05-17T10:53:03.729Z,50.06
2019-05-17T10:55:30.364Z,50.30
2019-05-17T10:57:56.544Z,47.95
2019-05-17T11:00:23.153Z,46.01
2019-05-17T11:02:50.335Z,43.34
2019-05-17T11:05:16.983Z,40.28
2019-05-17T11:07:43.210Z,38.46
2019-05-17T11:10:12.046Z,36.61
2019-05-17T11:15:59.399Z,33.74
2019-05-17T11:18:25.569Z,33.54
2019-05-17T11:20:51.821Z,33.25
2019-05-17T11:23:17.917Z,31.26
2019-05-17T11:25:46.243Z,33.17
2019-05-17T11:28:12.535Z,32.77
2019-05-17T11:30:39.070Z,30.67
2019-05-17T11:33:05.322Z,31.81
2019-05-17T11:35:31.685Z,30.98
2019-05-17T11:38:02.405Z,31.96
2019-05-17T11:40:29.457Z,30.66
2019-05-17T11:42:55.687Z,29.93
2019-05-17T11:45:27.933Z,30.19
2019-05-17T11:47:50.260Z,30.61
2019-05-17T11:50:16.608Z,32.56
2019-05-17T11:52:42.878Z,33.17
2019-05-17T11:55:09.278Z,33.58
2019-05-17T11:57:35.463Z,32.98
2019-05-17T12:00:06.920Z,34.33
2019-05-17T12:02:33.166Z,35.52
2019-05-17T12:04:59.347Z,35.19
2019-05-17T12:07:25.632Z,34.93
2019-05-17T12:09:51.841Z,36.18
2019-05-17T12:12:18.103Z,35.21
2019-05-17T12:14:44.398Z,37.03
2019-05-17T12:17:10.752Z,37.28
2019-05-17T12:19:37.458Z,39.33
2019-05-17T12:22:03.959Z,40.58
2019-05-17T12:24:30.170Z,42.01
2019-05-17T12:26:56.390Z,40.99
2019-05-17T12:29:22.510Z,42.70
2019-05-17T12:31:48.740Z,42.27
2019-05-17T12:34:14.913Z,44.12
2019-05-17T12:36:41.208Z,45.07
2019-05-17T12:39:07.445Z,45.26
2019-05-17T12:41:33.808Z,46.26
2019-05-17T12:44:00.203Z,46.25
2019-05-17T12:46:26.481Z,45.63
2019-05-17T12:48:52.790Z,40.94
2019-05-17T12:51:19.282Z,38.74
2019-05-17T12:53:45.519Z,39.52
2019-05-17T12:56:11.628Z,39.86
2019-05-17T12:58:37.898Z,41.55
2019-05-17T13:01:04.030Z,40.54
2019-05-17T13:03:30.224Z,39.35
2019-05-17T13:05:56.391Z,40.55
2019-05-17T13:08:22.744Z,41.28
2019-05-17T13:10:49.070Z,41.41
2019-05-17T13:13:15.427Z,41.81
2019-05-17T13:15:41.769Z,39.88
2019-05-17T13:18:07.879Z,38.47
2019-05-17T13:20:34.166Z,37.28
2019-05-17T13:23:01.092Z,33.96
2019-05-17T13:25:27.443Z,34.41
2019-05-17T13:27:53.539Z,35.38
2019-05-17T13:30:20.066Z,36.10
2019-05-17T13:32:46.215Z,36.75
2019-05-17T13:35:15.217Z,37.84
2019-05-17T13:37:41.495Z,38.14
2019-05-17T13:40:08.316Z,39.06
2019-05-17T13:42:34.484Z,38.98
2019-05-17T13:45:00.686Z,37.86
2019-05-17T13:47:26.909Z,39.92
2019-05-17T13:49:53.523Z,37.71
2019-05-17T13:52:19.867Z,34.96
2019-05-17T13:54:45.978Z,36.33
2019-05-17T13:57:13.304Z,35.17
2019-05-17T13:59:39.583Z,35.64
2019-05-17T14:02:05.854Z,35.65
2019-05-17T14:04:32.150Z,35.86
2019-05-17T14:06:58.296Z,36.26
2019-05-17T14:09:24.665Z,35.21
2019-05-17T14:11:50.825Z,34.79
2019-05-17T14:14:17.079Z,33.70
2019-05-17T14:16:43.247Z,31.23
2019-05-17T14:19:09.447Z,29.02
2019-05-17T14:21:35.553Z,27.88
2019-05-17T14:24:01.764Z,28.00
2019-05-17T14:26:27.934Z,26.01
2019-05-17T14:28:54.169Z,25.33
2019-05-17T14:31:20.317Z,26.16
2019-05-17T14:33:46.512Z,27.31
2019-05-17T14:36:12.683Z,27.01
2019-05-17T14:38:39.840Z,26.21
2019-05-17T14:41:08.055Z,25.84
2019-05-17T14:43:34.095Z,25.49
2019-05-17T14:46:00.699Z,26.41
2019-05-17T14:48:26.966Z,27.66
2019-05-17T14:50:53.161Z,29.32
2019-05-17T14:53:19.387Z,29.55
2019-05-17T14:55:45.550Z,28.30
2019-05-17T14:58:11.736Z,29.96
2019-05-17T15:00:38.002Z,28.66
2019-05-17T15:03:07.443Z,27.54
2019-05-17T15:05:32.252Z,27.53
2019-05-17T15:07:58.415Z,27.00
2019-05-17T15:10:24.549Z,27.50
2019-05-17T15:12:50.693Z,28.02
2019-05-17T15:15:25.815Z,28.94
2019-05-17T15:17:45.395Z,31.18
2019-05-17T15:20:11.857Z,32.24
2019-05-17T15:22:38.024Z,32.89
2019-05-17T15:25:04.378Z,34.75
2019-05-17T15:27:30.649Z,35.97
2019-05-17T15:29:56.901Z,36.08
2019-05-17T15:32:23.048Z,36.91
2019-05-17T15:34:49.194Z,37.37
2019-05-17T15:37:15.400Z,38.86
2019-05-17T15:39:41.507Z,38.91
2019-05-17T15:42:07.912Z,40.80
2019-05-17T15:44:34.055Z,41.53
2019-05-17T15:47:00.279Z,40.47
2019-05-17T15:49:26.542Z,38.08
2019-05-17T15:51:52.838Z,38.27
2019-05-17T15:54:18.989Z,39.13
2019-05-17T15:56:45.201Z,38.74
2019-05-17T15:59:11.418Z,39.70
2019-05-17T16:01:37.582Z,39.25
2019-05-17T16:04:04.058Z,39.85
2019-05-17T16:06:30.424Z,39.93
2019-05-17T16:08:56.785Z,40.26
2019-05-17T16:11:23.025Z,41.38
2019-05-17T16:13:49.303Z,40.95
2019-05-17T16:16:15.495Z,42.39
2019-05-17T16:18:41.588Z,43.41
2019-05-17T16:21:07.810Z,42.99
2019-05-17T16:23:33.899Z,43.51
2019-05-17T16:26:00.107Z,43.21
2019-05-17T16:28:26.232Z,42.96
2019-05-17T16:30:52.424Z,43.88
2019-05-17T16:33:18.526Z,43.62
2019-05-17T16:35:44.746Z,44.38
2019-05-17T16:38:10.955Z,44.99
2019-05-17T16:40:37.265Z,45.25
2019-05-17T16:43:17.173Z,44.04
2019-05-17T16:45:31.582Z,44.64
2019-05-17T16:47:57.805Z,45.01
2019-05-17T16:50:24.051Z,45.30
2019-05-17T16:53:03.698Z,45.61
2019-05-17T16:55:18.447Z,45.64
2019-05-17T16:57:44.674Z,46.11
2019-05-17T17:00:26.370Z,46.08
2019-05-17T17:02:52.715Z,46.08
2019-05-17T17:05:18.846Z,46.23
2019-05-17T17:07:45.172Z,46.66
2019-05-17T17:10:11.381Z,46.13
2019-05-17T17:12:37.640Z,46.77
2019-05-17T17:15:05.154Z,46.96
2019-05-17T17:17:31.397Z,46.96
2019-05-17T17:19:57.630Z,47.58
2019-05-17T17:22:23.907Z,47.86
2019-05-17T17:24:50.072Z,48.21
2019-05-17T17:27:16.217Z,48.21
2019-05-17T17:29:42.377Z,47.88
2019-05-17T17:32:20.860Z,48.09
2019-05-17T17:34:36.589Z,48.12
2019-05-17T17:37:02.901Z,47.97
2019-05-17T17:39:29.099Z,48.39
2019-05-17T17:41:55.254Z,48.82
2019-05-17T17:44:22.592Z,48.25
2019-05-17T17:46:48.843Z,48.69
2019-05-17T17:49:15.052Z,49.24
2019-05-17T17:51:41.247Z,49.83
2019-05-17T17:54:07.363Z,50.02
2019-05-17T17:56:33.606Z,49.64
2019-05-17T17:58:59.719Z,49.74
2019-05-17T18:01:25.941Z,49.06
2019-05-17T18:03:52.080Z,50.05
2019-05-17T18:06:18.494Z,49.88
2019-05-17T18:08:44.623Z,50.05
2019-05-17T18:11:10.807Z,50.36
2019-05-17T18:13:37.060Z,50.41
2019-05-17T18:18:30.225Z,51.08
2019-05-17T18:20:56.406Z,51.25
2019-05-17T18:23:23.711Z,51.76
2019-05-17T18:25:50.188Z,51.89
2019-05-17T18:28:16.615Z,52.24
2019-05-17T18:30:42.915Z,52.46
2019-05-17T18:33:09.189Z,52.69
2019-05-17T18:35:35.908Z,53.07
2019-05-17T18:38:02.366Z,53.47
2019-05-17T18:40:28.543Z,53.13
2019-05-17T18:42:54.744Z,53.50
2019-05-17T18:45:21.295Z,53.46
2019-05-17T18:47:50.362Z,53.56
2019-05-17T18:50:16.137Z,54.02
2019-05-17T18:52:42.442Z,54.00
2019-05-17T18:55:09.102Z,54.27
2019-05-17T18:57:35.411Z,54.50
2019-05-17T19:00:01.712Z,54.87
2019-05-17T19:02:28.040Z,55.07
2019-05-17T19:04:54.129Z,55.81
2019-05-17T19:07:20.386Z,55.76
2019-05-17T19:09:46.591Z,56.55
2019-05-17T19:12:12.808Z,57.11
2019-05-17T19:14:42.970Z,57.39
2019-05-17T19:17:07.258Z,57.29
2019-05-17T19:19:33.590Z,56.97
2019-05-17T19:21:59.700Z,57.15
2019-05-17T19:24:25.892Z,57.17
2019-05-17T19:26:53.044Z,57.32
2019-05-17T19:29:19.269Z,57.36
2019-05-17T19:31:45.511Z,57.74
2019-05-17T19:34:11.663Z,57.82
2019-05-17T19:36:39.774Z,57.84
2019-05-17T19:39:06.376Z,57.96
2019-05-17T19:41:32.942Z,58.68
2019-05-17T19:43:59.225Z,59.13
2019-05-17T19:46:25.477Z,60.07
2019-05-17T19:48:52.754Z,60.59
2019-05-17T19:51:19.284Z,60.84
2019-05-17T19:53:45.580Z,61.17
2019-05-17T19:56:11.890Z,61.66
2019-05-17T19:58:38.140Z,62.03
2019-05-17T20:04:16.199Z,62.67
2019-05-17T20:06:42.401Z,63.03
2019-05-17T20:09:08.765Z,63.24
2019-05-17T20:11:35.408Z,63.41
2019-05-17T20:14:01.697Z,63.67
2019-05-17T20:16:28.007Z,63.90
2019-05-17T20:18:54.248Z,63.98
2019-05-17T20:21:20.673Z,63.92
2019-05-17T20:23:46.874Z,64.22
2019-05-17T20:26:13.243Z,64.18
2019-05-17T20:28:39.719Z,63.95
2019-05-17T20:31:06.096Z,64.13
2019-05-17T20:33:32.344Z,64.08
2019-05-17T20:35:58.551Z,63.79
2019-05-17T20:38:24.813Z,63.40
2019-05-17T20:40:51.010Z,63.25
2019-05-17T20:43:17.161Z,63.25
2019-05-17T20:45:45.325Z,63.54
2019-05-17T20:48:11.774Z,63.36
2019-05-17T20:50:38.021Z,63.29
2019-05-17T20:53:18.073Z,63.44
2019-05-17T20:55:32.316Z,63.51
2019-05-17T20:57:58.509Z,63.63
2019-05-17T21:00:24.843Z,63.73
2019-05-17T21:02:51.822Z,63.92
2019-05-17T21:05:19.169Z,64.00
2019-05-17T21:07:45.694Z,64.10
2019-05-17T21:10:12.296Z,64.29
2019-05-17T21:12:38.495Z,64.44
2019-05-17T21:15:06.572Z,64.49
2019-05-17T21:17:32.675Z,64.99
2019-05-17T21:19:59.072Z,65.22
2019-05-17T21:22:25.159Z,65.60
2019-05-17T21:24:51.568Z,65.78
2019-05-17T21:27:17.675Z,65.83
2019-05-17T21:29:43.869Z,65.75
2019-05-17T21:32:09.978Z,66.02
2019-05-17T21:34:36.206Z,66.15
2019-05-17T21:37:02.398Z,66.08
2019-05-17T21:39:28.646Z,65.99
2019-05-17T21:41:54.998Z,65.99
2019-05-17T21:44:21.327Z,65.93
2019-05-17T21:47:02.414Z,66.03
2019-05-17T21:49:15.676Z,66.08
2019-05-17T21:51:41.818Z,66.02
2019-05-17T21:54:08.183Z,66.03
2019-05-17T21:56:34.382Z,66.05
2019-05-17T21:59:00.497Z,66.04
2019-05-17T22:01:30.645Z,66.14
2019-05-17T22:03:56.850Z,66.14
2019-05-17T22:06:23.163Z,66.29
2019-05-17T22:08:49.475Z,66.11
2019-05-17T22:11:15.790Z,66.08
2019-05-17T22:13:41.888Z,66.15
2019-05-17T22:16:19.174Z,65.90
2019-05-17T22:18:36.474Z,66.09
2019-05-17T22:21:02.789Z,66.21
2019-05-17T22:23:28.922Z,66.28
2019-05-17T22:25:55.147Z,66.23
2019-05-17T22:28:21.472Z,66.60
2019-05-17T22:30:47.739Z,66.64
2019-05-17T22:33:13.998Z,67.05
2019-05-17T22:35:40.248Z,66.89
2019-05-17T22:38:06.441Z,67.07
2019-05-17T22:40:32.546Z,66.91
2019-05-17T22:42:58.761Z,66.85
2019-05-17T22:45:24.842Z,66.88
2019-05-17T22:47:51.053Z,66.96
2019-05-17T22:50:17.283Z,67.01
2019-05-17T22:52:43.509Z,67.28
2019-05-17T22:55:09.815Z,67.20
2019-05-17T22:57:36.141Z,67.24
2019-05-17T23:00:05.036Z,67.59
2019-05-17T23:02:33.236Z,67.43
2019-05-17T23:04:59.382Z,67.20
2019-05-17T23:07:25.595Z,67.78
2019-05-17T23:09:51.704Z,67.79
2019-05-17T23:12:17.917Z,67.81
2019-05-17T23:14:44.152Z,67.81
2019-05-17T23:17:10.343Z,67.91
2019-05-17T23:19:36.443Z,67.90
2019-05-17T23:22:03.460Z,68.21
2019-05-17T23:24:29.619Z,68.57
2019-05-17T23:26:55.978Z,68.67
2019-05-17T23:29:22.184Z,68.97
2019-05-17T23:31:48.281Z,69.08
2019-05-17T23:34:14.577Z,69.20
2019-05-17T23:36:40.851Z,69.38
2019-05-17T23:39:07.109Z,69.55
2019-05-17T23:41:33.259Z,69.57
2019-05-17T23:43:59.407Z,69.67
2019-05-17T23:46:26.194Z,69.61
2019-05-17T23:48:52.299Z,69.39
2019-05-17T23:51:18.632Z,69.79
2019-05-17T23:53:44.866Z,69.75
2019-05-17T23:56:11.062Z,69.85
2019-05-17T23:58:37.195Z,69.88
